createdAt,value
2022-09-09T00:00:28.233Z,21.85
2022-09-09T00:02:59.488Z,20.27
2022-09-09T00:05:31.819Z,21.25
2022-09-09T00:08:02.143Z,23.33
2022-09-09T00:10:30.857Z,25.23
2022-09-09T00:13:03.474Z,21.38
2022-09-09T00:15:34.530Z,20.40
2022-09-09T00:18:05.723Z,21.77
2022-09-09T00:20:35.796Z,23.02
2022-09-09T00:23:12.730Z,22.15
2022-09-09T00:25:44.944Z,20.63
2022-09-09T00:28:18.624Z,22.10
2022-09-09T00:30:49.224Z,23.88
2022-09-09T00:33:17.660Z,21.95
2022-09-09T00:35:46.550Z,23.98
2022-09-09T00:38:16.756Z,23.60
2022-09-09T00:40:51.033Z,22.77
2022-09-09T00:43:28.927Z,25.77
2022-09-09T00:46:17.164Z,22.45
2022-09-09T00:48:49.643Z,20.73
2022-09-09T00:51:19.279Z,25.17
2022-09-09T00:54:00.673Z,24.90
2022-09-09T00:56:33.078Z,23.67
2022-09-09T00:59:03.466Z,22.48
2022-09-09T01:01:31.144Z,23.55
2022-09-09T01:04:00.634Z,26.05
2022-09-09T01:06:31.676Z,22.57
2022-09-09T01:09:18.621Z,21.75
2022-09-09T01:11:51.740Z,24.65
2022-09-09T01:14:27.029Z,21.35
2022-09-09T01:16:56.871Z,24.27
2022-09-09T01:19:31.845Z,23.87
2022-09-09T01:22:03.774Z,24.23
2022-09-09T01:24:37.273Z,21.33
2022-09-09T01:27:07.334Z,22.67
2022-09-09T01:29:34.881Z,22.05
2022-09-09T01:32:03.663Z,20.80
2022-09-09T01:34:33.490Z,23.92
2022-09-09T01:37:03.135Z,25.73
2022-09-09T01:39:30.693Z,25.77
2022-09-09T01:41:58.560Z,24.75
2022-09-09T01:44:28.594Z,26.10
2022-09-09T01:46:56.055Z,28.90
2022-09-09T01:49:23.858Z,27.08
2022-09-09T01:51:53.254Z,26.98
2022-09-09T01:54:20.908Z,25.70
2022-09-09T01:56:53.110Z,29.13
2022-09-09T01:59:26.489Z,25.83
2022-09-09T02:01:59.647Z,29.60
2022-09-09T02:04:34.254Z,28.45
2022-09-09T02:07:02.127Z,29.15
2022-09-09T02:09:31.573Z,23.80
2022-09-09T02:12:01.996Z,30.58
2022-09-09T02:14:31.243Z,29.77
2022-09-09T02:17:04.301Z,28.45
2022-09-09T02:19:33.831Z,26.77
2022-09-09T02:22:02.438Z,26.53
2022-09-09T02:24:31.909Z,27.77
2022-09-09T02:27:00.160Z,29.85
2022-09-09T02:29:29.228Z,36.00
2022-09-09T02:31:58.590Z,39.65
2022-09-09T02:34:28.612Z,36.83
2022-09-09T02:36:57.005Z,37.08
2022-09-09T02:39:24.490Z,37.75
2022-09-09T02:41:51.969Z,56.78
2022-09-09T02:44:20.180Z,55.58
2022-09-09T02:46:57.819Z,52.23
2022-09-09T02:49:29.828Z,72.03
2022-09-09T02:52:02.268Z,72.25
2022-09-09T02:54:31.988Z,69.18
2022-09-09T02:57:03.896Z,50.88
2022-09-09T02:59:31.442Z,63.53
2022-09-09T03:01:58.943Z,77.50
2022-09-09T03:04:27.814Z,59.80
2022-09-09T03:06:55.408Z,62.97
2022-09-09T03:09:22.881Z,55.15
2022-09-09T03:11:51.468Z,34.00
2022-09-09T03:14:22.153Z,65.32
2022-09-09T03:16:49.662Z,54.88
2022-09-09T03:19:17.184Z,48.58
2022-09-09T03:21:46.006Z,50.97
2022-09-09T03:24:13.564Z,46.47
2022-09-09T03:26:41.147Z,53.25
2022-09-09T03:29:08.840Z,59.00
2022-09-09T03:31:36.976Z,35.38
2022-09-09T03:34:04.527Z,37.20
2022-09-09T03:36:32.219Z,42.73
2022-09-09T03:39:01.362Z,42.13
2022-09-09T03:41:29.656Z,40.97
2022-09-09T03:43:57.415Z,37.90
2022-09-09T03:46:25.840Z,33.83
2022-09-09T03:48:54.240Z,37.47
2022-09-09T03:51:22.388Z,41.53
2022-09-09T03:53:50.114Z,40.97
2022-09-09T03:56:22.958Z,36.80
2022-09-09T03:58:50.531Z,36.83
2022-09-09T04:01:18.898Z,33.53
2022-09-09T04:03:46.712Z,41.47
2022-09-09T04:06:15.950Z,36.38
2022-09-09T04:08:43.510Z,37.63
2022-09-09T04:11:11.346Z,38.03
2022-09-09T04:13:40.772Z,35.93
2022-09-09T04:16:08.887Z,40.15
2022-09-09T04:18:36.794Z,36.75
2022-09-09T04:21:04.697Z,35.53
2022-09-09T04:23:32.242Z,33.67
2022-09-09T04:26:00.497Z,33.97
2022-09-09T04:28:28.689Z,35.72
2022-09-09T04:30:57.917Z,29.92
2022-09-09T04:33:26.905Z,32.42
2022-09-09T04:35:55.973Z,35.17
2022-09-09T04:38:24.856Z,34.30
2022-09-09T04:40:54.815Z,32.88
2022-09-09T04:43:23.256Z,32.35
2022-09-09T04:45:52.161Z,29.23
2022-09-09T04:48:21.763Z,31.08
2022-09-09T04:50:55.971Z,32.63
2022-09-09T04:53:23.575Z,33.28
2022-09-09T04:55:51.284Z,32.35
2022-09-09T04:58:19.341Z,30.35
2022-09-09T05:00:47.425Z,32.35
2022-09-09T05:03:15.209Z,36.40
2022-09-09T05:05:44.017Z,32.53
2022-09-09T05:08:11.520Z,28.58
2022-09-09T05:10:39.495Z,28.35
2022-09-09T05:13:07.507Z,28.95
2022-09-09T05:15:35.033Z,30.43
2022-09-09T05:18:03.418Z,29.85
2022-09-09T05:20:31.526Z,27.30
2022-09-09T05:23:00.416Z,28.67
2022-09-09T05:25:27.970Z,31.10
2022-09-09T05:27:55.773Z,32.50
2022-09-09T05:30:27.289Z,29.60
2022-09-09T05:32:57.542Z,31.67
2022-09-09T05:35:25.021Z,29.13
2022-09-09T05:37:52.477Z,30.65
2022-09-09T05:40:22.407Z,37.37
2022-09-09T05:42:49.926Z,30.80
2022-09-09T05:45:17.488Z,31.13
2022-09-09T05:47:44.972Z,38.03
2022-09-09T05:50:12.920Z,31.65
2022-09-09T05:52:40.453Z,32.43
2022-09-09T05:55:08.809Z,32.88
2022-09-09T05:57:37.669Z,29.27
2022-09-09T06:00:05.669Z,37.53
2022-09-09T06:02:34.122Z,32.17
2022-09-09T06:05:01.702Z,30.53
2022-09-09T06:07:29.200Z,28.40
2022-09-09T06:09:57.279Z,27.27
2022-09-09T06:12:24.810Z,30.15
2022-09-09T06:14:53.630Z,30.92
2022-09-09T06:17:21.139Z,28.17
2022-09-09T06:19:48.630Z,31.02
2022-09-09T06:22:16.083Z,32.80
2022-09-09T06:24:43.571Z,23.98
2022-09-09T06:27:11.727Z,28.83
2022-09-09T06:29:39.238Z,30.63
2022-09-09T06:32:09.520Z,31.33
2022-09-09T06:34:37.583Z,29.92
2022-09-09T06:37:05.623Z,29.08
2022-09-09T06:39:33.191Z,26.65
2022-09-09T06:42:00.791Z,40.23
2022-09-09T06:44:31.224Z,25.30
2022-09-09T06:47:02.115Z,25.70
2022-09-09T06:49:30.966Z,26.98
2022-09-09T06:51:58.486Z,22.95
2022-09-09T06:54:26.402Z,24.63
2022-09-09T06:56:53.870Z,26.60
2022-09-09T06:59:21.353Z,28.40
2022-09-09T07:01:51.341Z,23.73
2022-09-09T07:04:22.459Z,22.75
2022-09-09T07:06:53.413Z,26.40
2022-09-09T07:09:21.070Z,47.08
2022-09-09T07:11:49.032Z,25.60
2022-09-09T07:14:16.948Z,24.75
2022-09-09T07:16:44.737Z,27.42
2022-09-09T07:19:12.432Z,24.03
2022-09-09T07:21:41.324Z,25.63
2022-09-09T07:24:11.616Z,22.98
2022-09-09T07:26:39.759Z,23.48
2022-09-09T07:29:07.287Z,23.80
2022-09-09T07:31:36.336Z,24.60
2022-09-09T07:34:04.591Z,24.00
2022-09-09T07:36:33.769Z,23.88
2022-09-09T07:39:02.801Z,25.15
2022-09-09T07:41:35.166Z,24.20
2022-09-09T07:44:05.982Z,24.37
2022-09-09T07:46:33.603Z,25.45
2022-09-09T07:49:01.893Z,26.25
2022-09-09T07:51:30.527Z,28.50
2022-09-09T07:53:59.577Z,26.63
2022-09-09T07:56:28.101Z,27.63
2022-09-09T07:58:57.632Z,23.80
2022-09-09T08:01:26.368Z,24.17
2022-09-09T08:03:56.677Z,21.98
2022-09-09T08:06:26.047Z,21.90
2022-09-09T08:08:53.875Z,21.90
2022-09-09T08:11:21.434Z,23.35
2022-09-09T08:13:53.759Z,24.48
2022-09-09T08:16:23.985Z,26.85
2022-09-09T08:18:52.334Z,26.33
2022-09-09T08:21:20.949Z,24.17
2022-09-09T08:23:49.273Z,24.23
2022-09-09T08:26:17.667Z,25.60
2022-09-09T08:28:45.503Z,24.67
2022-09-09T08:31:14.404Z,23.05
2022-09-09T08:33:45.000Z,23.70
2022-09-09T08:36:13.146Z,22.10
2022-09-09T08:38:40.741Z,24.35
2022-09-09T08:41:31.049Z,24.90
2022-09-09T08:44:02.614Z,25.85
2022-09-09T08:46:33.699Z,24.70
2022-09-09T08:49:07.263Z,24.02
2022-09-09T08:51:35.152Z,24.13
2022-09-09T08:54:04.349Z,23.70
2022-09-09T08:56:34.722Z,22.60
2022-09-09T08:59:04.688Z,20.17
2022-09-09T09:01:42.941Z,22.75
2022-09-09T09:04:20.576Z,22.98
2022-09-09T09:06:51.737Z,21.70
2022-09-09T09:09:23.178Z,21.67
2022-09-09T09:11:52.476Z,21.83
2022-09-09T09:14:22.350Z,22.67
2022-09-09T09:16:52.993Z,23.05
2022-09-09T09:19:23.847Z,22.23
2022-09-09T09:21:54.008Z,23.38
2022-09-09T09:24:22.360Z,22.67
2022-09-09T09:26:50.550Z,21.27
2022-09-09T09:29:18.967Z,24.13
2022-09-09T09:31:48.986Z,25.80
2022-09-09T09:34:16.550Z,24.23
2022-09-09T09:36:48.000Z,24.43
2022-09-09T09:42:15.468Z,23.63
2022-09-09T09:44:44.045Z,21.42
2022-09-09T09:47:14.042Z,23.67
2022-09-09T09:49:41.807Z,21.63
2022-09-09T09:52:16.781Z,22.20
2022-09-09T09:54:44.280Z,21.67
2022-09-09T09:57:13.139Z,22.75
2022-09-09T09:59:41.469Z,24.30
2022-09-09T10:02:16.392Z,21.13
2022-09-09T10:04:44.056Z,20.00
2022-09-09T10:07:14.002Z,21.63
2022-09-09T10:09:42.354Z,22.70
2022-09-09T10:12:15.729Z,20.02
2022-09-09T10:14:46.105Z,18.03
2022-09-09T10:17:23.012Z,16.88
2022-09-09T10:19:59.972Z,17.83
2022-09-09T10:22:29.790Z,18.30
2022-09-09T10:25:19.403Z,18.58
2022-09-09T10:27:57.506Z,16.33
2022-09-09T10:30:28.626Z,15.90
2022-09-09T10:32:59.140Z,16.95
2022-09-09T10:35:29.398Z,16.50
2022-09-09T10:38:07.122Z,17.45
2022-09-09T10:40:35.745Z,16.73
2022-09-09T10:43:09.385Z,14.57
2022-09-09T10:45:43.559Z,15.88
2022-09-09T10:48:17.032Z,16.02
2022-09-09T10:51:00.619Z,16.30
2022-09-09T10:53:37.989Z,17.23
2022-09-09T10:56:08.095Z,15.38
2022-09-09T10:58:39.450Z,16.35
2022-09-09T11:01:11.844Z,18.00
2022-09-09T11:03:41.788Z,16.67
2022-09-09T11:06:14.829Z,16.73
2022-09-09T11:08:44.253Z,15.52
2022-09-09T11:11:13.057Z,19.45
2022-09-09T11:13:44.239Z,16.92
2022-09-09T11:16:18.559Z,18.63
2022-09-09T11:18:47.519Z,17.00
2022-09-09T11:21:19.639Z,17.92
2022-09-09T11:23:51.502Z,16.70
2022-09-09T11:26:20.881Z,15.55
2022-09-09T11:28:59.501Z,14.98
2022-09-09T11:31:37.464Z,18.37
2022-09-09T11:34:19.911Z,16.08
2022-09-09T11:36:57.440Z,16.40
2022-09-09T11:39:38.627Z,15.30
2022-09-09T11:42:09.537Z,16.55
2022-09-09T11:47:05.650Z,16.27
2022-09-09T11:49:43.230Z,17.20
2022-09-09T11:52:15.154Z,17.52
2022-09-09T11:54:49.136Z,20.23
2022-09-09T11:57:25.297Z,18.63
2022-09-09T11:59:54.088Z,18.77
2022-09-09T12:02:24.529Z,19.65
2022-09-09T12:04:57.104Z,19.63
2022-09-09T12:07:28.824Z,17.63
2022-09-09T12:09:59.974Z,15.57
2022-09-09T12:12:32.068Z,15.18
2022-09-09T12:15:04.419Z,15.82
2022-09-09T12:17:32.705Z,12.85
2022-09-09T12:20:07.849Z,10.52
2022-09-09T12:22:40.217Z,10.23
2022-09-09T12:25:14.757Z,9.90
2022-09-09T12:27:47.249Z,11.50
2022-09-09T12:30:17.090Z,8.70
2022-09-09T12:32:45.575Z,8.30
2022-09-09T12:35:14.038Z,9.73
2022-09-09T12:37:43.120Z,8.38
2022-09-09T12:40:21.813Z,9.18
2022-09-09T12:42:49.457Z,9.43
2022-09-09T12:45:18.833Z,9.95
2022-09-09T12:47:48.528Z,7.83
2022-09-09T12:50:20.629Z,8.10
2022-09-09T12:52:49.087Z,8.45
2022-09-09T12:55:19.401Z,8.98
2022-09-09T12:57:51.183Z,8.38
2022-09-09T13:00:20.070Z,7.33
2022-09-09T13:02:48.472Z,7.88
2022-09-09T13:05:18.223Z,7.38
2022-09-09T13:07:45.912Z,8.38
2022-09-09T13:10:18.026Z,8.35
2022-09-09T13:12:54.565Z,7.97
2022-09-09T13:15:24.077Z,8.32
2022-09-09T13:17:53.493Z,10.43
2022-09-09T13:20:21.773Z,8.65
2022-09-09T13:22:51.215Z,9.07
2022-09-09T13:25:25.227Z,10.50
2022-09-09T13:28:01.813Z,9.70
2022-09-09T13:30:30.462Z,8.80
2022-09-09T13:33:08.695Z,8.93
2022-09-09T13:35:36.685Z,7.97
2022-09-09T13:38:11.309Z,9.63
2022-09-09T13:40:39.616Z,9.35
2022-09-09T13:43:16.560Z,9.70
2022-09-09T13:45:54.926Z,8.43
2022-09-09T13:48:22.477Z,10.35
2022-09-09T13:50:55.922Z,12.03
2022-09-09T13:53:23.437Z,11.07
2022-09-09T13:55:53.418Z,14.18
2022-09-09T13:58:23.811Z,10.55
2022-09-09T14:00:51.967Z,10.23
2022-09-09T14:03:19.525Z,10.07
2022-09-09T14:05:47.645Z,11.25
2022-09-09T14:08:18.280Z,10.85
2022-09-09T14:10:46.495Z,10.52
2022-09-09T14:13:14.116Z,13.48
2022-09-09T14:15:42.982Z,12.00
2022-09-09T14:18:11.774Z,10.27
2022-09-09T14:20:39.290Z,10.60
2022-09-09T14:23:07.668Z,10.23
2022-09-09T14:25:35.496Z,6.15
2022-09-09T14:28:03.946Z,7.17
2022-09-09T14:30:31.626Z,6.28
2022-09-09T14:33:01.126Z,6.55
2022-09-09T14:35:29.071Z,7.38
2022-09-09T14:37:57.474Z,7.47
2022-09-09T14:40:24.945Z,8.37
2022-09-09T14:42:52.466Z,7.43
2022-09-09T14:45:20.561Z,7.13
2022-09-09T14:47:48.047Z,6.43
2022-09-09T14:50:17.061Z,7.72
2022-09-09T14:52:44.750Z,7.37
2022-09-09T14:55:12.304Z,8.40
2022-09-09T14:57:41.209Z,7.40
2022-09-09T15:00:09.541Z,8.40
2022-09-09T15:02:37.049Z,7.95
2022-09-09T15:05:05.314Z,8.33
2022-09-09T15:07:35.072Z,7.18
2022-09-09T15:10:02.568Z,8.48
2022-09-09T15:12:30.288Z,8.20
2022-09-09T15:14:57.820Z,8.15
2022-09-09T15:17:28.174Z,8.27
2022-09-09T15:19:55.998Z,7.45
2022-09-09T15:22:23.820Z,7.22
2022-09-09T15:24:52.733Z,7.47
2022-09-09T15:27:20.203Z,9.43
2022-09-09T15:29:48.347Z,7.80
2022-09-09T15:32:15.811Z,6.95
2022-09-09T15:34:43.429Z,5.75
2022-09-09T15:37:13.952Z,6.25
2022-09-09T15:39:41.785Z,6.78
2022-09-09T15:42:11.236Z,6.67
2022-09-09T15:44:43.198Z,6.63
2022-09-09T15:47:12.778Z,6.95
2022-09-09T15:49:40.427Z,6.57
2022-09-09T15:52:07.951Z,5.80
2022-09-09T15:54:36.432Z,6.13
2022-09-09T15:57:05.508Z,5.95
2022-09-09T15:59:35.071Z,5.22
2022-09-09T16:02:02.877Z,5.72
2022-09-09T16:04:30.589Z,5.47
2022-09-09T16:06:59.787Z,4.70
2022-09-09T16:09:27.655Z,5.53
2022-09-09T16:11:57.624Z,4.55
2022-09-09T16:14:25.797Z,3.67
2022-09-09T16:16:54.914Z,3.65
2022-09-09T16:19:22.442Z,3.63
2022-09-09T16:21:50.700Z,3.50
2022-09-09T16:24:19.410Z,3.60
2022-09-09T16:26:48.416Z,3.88
2022-09-09T16:29:17.766Z,4.93
2022-09-09T16:31:45.420Z,5.00
2022-09-09T16:34:15.342Z,4.20
2022-09-09T16:36:43.665Z,4.03
2022-09-09T16:39:11.808Z,5.07
2022-09-09T16:41:40.106Z,4.88
2022-09-09T16:44:08.460Z,4.20
2022-09-09T16:46:36.993Z,4.47
2022-09-09T16:49:05.826Z,5.38
2022-09-09T16:51:35.751Z,5.50
2022-09-09T16:54:04.686Z,7.20
2022-09-09T16:56:33.942Z,10.43
2022-09-09T16:59:01.980Z,14.60
2022-09-09T17:01:30.577Z,7.40
2022-09-09T17:04:01.119Z,14.30
2022-09-09T17:06:29.878Z,16.13
2022-09-09T17:08:59.175Z,5.27
2022-09-09T17:11:26.839Z,4.25
2022-09-09T17:13:55.609Z,3.63
2022-09-09T17:16:24.188Z,3.13
2022-09-09T17:18:51.942Z,3.55
2022-09-09T17:21:20.546Z,2.80
2022-09-09T17:23:48.273Z,3.10
2022-09-09T17:26:18.555Z,4.38
2022-09-09T17:28:46.609Z,2.90
2022-09-09T17:31:15.633Z,3.10
2022-09-09T17:33:44.114Z,3.73
2022-09-09T17:36:13.150Z,3.38
2022-09-09T17:38:41.049Z,3.10
2022-09-09T17:41:09.597Z,3.38
2022-09-09T17:43:38.721Z,3.97
2022-09-09T17:46:10.553Z,5.47
2022-09-09T17:48:38.672Z,4.65
2022-09-09T17:51:06.644Z,4.25
2022-09-09T17:53:38.230Z,4.40
2022-09-09T17:56:06.843Z,3.63
2022-09-09T17:58:34.506Z,7.03
2022-09-09T18:01:07.059Z,4.40
2022-09-09T18:03:35.613Z,5.13
2022-09-09T18:06:03.938Z,5.15
2022-09-09T18:08:34.740Z,4.13
2022-09-09T18:11:04.642Z,5.17
2022-09-09T18:13:32.135Z,4.68
2022-09-09T18:16:00.326Z,3.40
2022-09-09T18:18:30.178Z,5.63
2022-09-09T18:21:01.634Z,4.30
2022-09-09T18:23:29.336Z,4.10
2022-09-09T18:25:58.910Z,3.92
2022-09-09T18:28:27.251Z,5.22
2022-09-09T18:30:54.916Z,4.75
2022-09-09T18:33:22.479Z,3.75
2022-09-09T18:35:51.408Z,4.90
2022-09-09T18:38:18.924Z,5.82
2022-09-09T18:40:46.498Z,4.65
2022-09-09T18:43:14.002Z,4.65
2022-09-09T18:45:41.540Z,4.30
2022-09-09T18:48:09.058Z,5.20
2022-09-09T18:50:36.563Z,5.22
2022-09-09T18:53:05.417Z,4.40
2022-09-09T18:55:33.340Z,5.35
2022-09-09T18:58:01.182Z,6.00
2022-09-09T19:00:29.277Z,5.47
2022-09-09T19:02:56.878Z,6.80
2022-09-09T19:05:24.423Z,6.15
2022-09-09T19:07:51.943Z,5.40
2022-09-09T19:10:21.328Z,5.63
2022-09-09T19:12:48.969Z,5.60
2022-09-09T19:15:17.934Z,5.03
2022-09-09T19:17:45.544Z,6.22
2022-09-09T19:20:13.060Z,6.82
2022-09-09T19:22:40.634Z,6.28
2022-09-09T19:25:08.634Z,6.47
2022-09-09T19:27:37.538Z,5.93
2022-09-09T19:30:05.394Z,7.03
2022-09-09T19:35:20.618Z,6.05
2022-09-09T19:37:48.153Z,6.30
2022-09-09T19:40:15.684Z,5.95
2022-09-09T19:42:44.601Z,7.05
2022-09-09T19:45:12.104Z,8.07
2022-09-09T19:47:39.592Z,7.20
2022-09-09T19:50:07.608Z,7.60
2022-09-09T19:52:35.129Z,7.50
2022-09-09T19:55:02.724Z,8.23
2022-09-09T19:57:30.872Z,7.10
2022-09-09T20:00:00.844Z,9.73
2022-09-09T20:02:28.813Z,6.90
2022-09-09T20:04:56.332Z,10.35
2022-09-09T20:07:23.982Z,8.85
2022-09-09T20:09:54.780Z,9.02
2022-09-09T20:12:22.375Z,9.43
2022-09-09T20:14:49.882Z,10.87
2022-09-09T20:17:18.774Z,12.45
2022-09-09T20:19:46.327Z,11.65
2022-09-09T20:22:14.592Z,8.60
2022-09-09T20:24:44.041Z,10.18
2022-09-09T20:27:11.531Z,10.40
2022-09-09T20:29:39.314Z,10.18
2022-09-09T20:32:06.988Z,8.88
2022-09-09T20:34:35.788Z,8.27
2022-09-09T20:37:04.684Z,9.68
2022-09-09T20:39:32.244Z,9.33
2022-09-09T20:41:59.772Z,9.48
2022-09-09T20:44:27.746Z,10.23
2022-09-09T20:46:57.116Z,9.20
2022-09-09T20:49:25.644Z,9.50
2022-09-09T20:51:55.147Z,9.87
2022-09-09T20:54:24.080Z,8.07
2022-09-09T20:56:52.341Z,10.02
2022-09-09T20:59:21.190Z,7.82
2022-09-09T21:01:49.121Z,9.63
2022-09-09T21:04:17.597Z,8.10
2022-09-09T21:06:45.263Z,9.40
2022-09-09T21:09:14.137Z,9.20
2022-09-09T21:11:41.977Z,8.63
2022-09-09T21:14:09.776Z,8.40
2022-09-09T21:16:37.264Z,11.63
2022-09-09T21:19:05.312Z,8.80
2022-09-09T21:21:32.817Z,8.35
2022-09-09T21:24:00.645Z,10.50
2022-09-09T21:26:29.560Z,8.98
2022-09-09T21:28:57.092Z,11.30
2022-09-09T21:31:28.177Z,9.20
2022-09-09T21:33:56.156Z,9.68
2022-09-09T21:36:24.036Z,9.98
2022-09-09T21:38:51.555Z,8.60
2022-09-09T21:41:19.171Z,9.83
2022-09-09T21:43:52.257Z,8.10
2022-09-09T21:46:19.773Z,7.57
2022-09-09T21:48:47.386Z,9.13
2022-09-09T21:51:15.788Z,6.82
2022-09-09T21:53:43.586Z,7.43
2022-09-09T21:56:12.191Z,8.98
2022-09-09T21:58:40.855Z,9.20
2022-09-09T22:01:11.342Z,9.85
2022-09-09T22:03:39.197Z,5.85
2022-09-09T22:06:08.438Z,8.10
2022-09-09T22:08:36.363Z,7.50
2022-09-09T22:11:07.748Z,9.43
2022-09-09T22:13:36.062Z,6.90
2022-09-09T22:16:04.125Z,9.57
2022-09-09T22:18:34.587Z,10.77
2022-09-09T22:21:05.739Z,8.90
2022-09-09T22:23:33.364Z,6.93
2022-09-09T22:26:00.814Z,6.15
2022-09-09T22:28:29.891Z,6.22
2022-09-09T22:30:57.400Z,7.13
2022-09-09T22:33:24.984Z,9.20
2022-09-09T22:35:53.787Z,6.47
2022-09-09T22:38:21.648Z,12.57
2022-09-09T22:40:49.261Z,5.80
2022-09-09T22:43:18.182Z,6.57
2022-09-09T22:45:45.843Z,5.72
2022-09-09T22:48:13.929Z,7.00
2022-09-09T22:50:42.660Z,6.45
2022-09-09T22:53:14.403Z,6.45
2022-09-09T22:55:41.917Z,6.47
2022-09-09T22:58:09.462Z,5.82
2022-09-09T23:00:37.397Z,8.10
2022-09-09T23:03:04.919Z,6.22
2022-09-09T23:05:33.432Z,5.80
2022-09-09T23:08:00.931Z,5.37
2022-09-09T23:10:32.091Z,5.40
2022-09-09T23:12:59.767Z,6.70
2022-09-09T23:15:29.034Z,5.65
2022-09-09T23:17:56.637Z,6.82
2022-09-09T23:20:24.198Z,7.83
2022-09-09T23:22:51.677Z,7.35
2022-09-09T23:25:19.272Z,11.70
2022-09-09T23:27:48.895Z,9.57
2022-09-09T23:30:16.499Z,5.65
2022-09-09T23:32:46.999Z,8.37
2022-09-09T23:35:14.565Z,8.45
2022-09-09T23:37:42.021Z,7.45
2022-09-09T23:40:09.788Z,6.35
2022-09-09T23:42:37.330Z,9.38
2022-09-09T23:45:06.920Z,10.00
2022-09-09T23:47:34.418Z,9.70
2022-09-09T23:50:02.455Z,7.60
2022-09-09T23:52:30.253Z,10.07
2022-09-09T23:54:57.793Z,8.90
2022-09-09T23:57:26.399Z,9.13
2022-09-09T23:59:53.914Z,9.90
